createdAt,value
2022-12-11T00:00:12.059Z,107.97
2022-12-11T00:02:40.517Z,100.20
2022-12-11T00:05:10.149Z,110.03
2022-12-11T00:07:38.615Z,92.43
2022-12-11T00:10:09.695Z,114.00
2022-12-11T00:12:38.177Z,98.18
2022-12-11T00:15:07.580Z,113.85
2022-12-11T00:17:36.325Z,92.10
2022-12-11T00:20:08.266Z,91.50
2022-12-11T00:22:37.682Z,97.88
2022-12-11T00:25:06.709Z,89.05
2022-12-11T00:27:36.459Z,93.25
2022-12-11T00:30:06.267Z,103.43
2022-12-11T00:32:37.568Z,78.45
2022-12-11T00:35:06.914Z,98.28
2022-12-11T00:37:35.336Z,100.55
2022-12-11T00:40:04.004Z,104.03
2022-12-11T00:42:32.318Z,76.82
2022-12-11T00:45:02.315Z,96.03
2022-12-11T00:47:30.743Z,101.00
2022-12-11T00:49:59.125Z,80.63
2022-12-11T00:52:28.427Z,89.78
2022-12-11T00:54:56.821Z,83.72
2022-12-11T00:57:27.208Z,71.88
2022-12-11T00:59:56.099Z,78.97
2022-12-11T01:02:27.062Z,86.70
2022-12-11T01:04:58.455Z,89.05
2022-12-11T01:07:27.277Z,103.10
2022-12-11T01:10:12.787Z,99.55
2022-12-11T01:12:41.312Z,75.05
2022-12-11T01:15:12.103Z,87.13
2022-12-11T01:17:42.464Z,80.70
2022-12-11T01:20:11.659Z,67.85
2022-12-11T01:22:40.256Z,73.43
2022-12-11T01:25:10.706Z,65.43
2022-12-11T01:27:45.143Z,80.18
2022-12-11T01:30:15.373Z,65.50
2022-12-11T01:32:45.217Z,60.05
2022-12-11T01:35:14.623Z,64.45
2022-12-11T01:37:43.509Z,78.82
2022-12-11T01:40:14.656Z,71.65
2022-12-11T01:42:43.165Z,87.95
2022-12-11T01:45:28.924Z,64.20
2022-12-11T01:48:03.162Z,60.70
2022-12-11T01:50:35.245Z,68.15
2022-12-11T01:53:08.273Z,60.00
2022-12-11T01:55:39.066Z,66.22
2022-12-11T01:58:17.333Z,67.32
2022-12-11T02:00:45.703Z,74.18
2022-12-11T02:03:15.542Z,66.93
2022-12-11T02:05:43.876Z,60.83
2022-12-11T02:08:12.934Z,72.82
2022-12-11T02:10:53.977Z,60.10
2022-12-11T02:13:29.062Z,85.30
2022-12-11T02:16:04.278Z,80.03
2022-12-11T02:18:40.389Z,104.90
2022-12-11T02:21:14.811Z,94.20
2022-12-11T02:24:02.490Z,93.68
2022-12-11T02:27:06.782Z,95.20
2022-12-11T02:29:39.485Z,92.03
2022-12-11T02:32:15.578Z,79.30
2022-12-11T02:34:49.986Z,106.50
2022-12-11T02:37:23.268Z,110.10
2022-12-11T02:39:55.238Z,106.90
2022-12-11T02:42:27.087Z,87.97
2022-12-11T02:45:02.258Z,109.38
2022-12-11T02:47:33.216Z,88.82
2022-12-11T02:50:04.977Z,97.72
2022-12-11T02:52:34.630Z,105.63
2022-12-11T02:55:05.487Z,109.15
2022-12-11T02:57:40.025Z,118.38
2022-12-11T03:00:11.466Z,104.57
2022-12-11T03:02:41.068Z,114.93
2022-12-11T03:05:11.065Z,117.85
2022-12-11T03:07:41.964Z,121.25
2022-12-11T03:10:14.610Z,107.50
2022-12-11T03:12:49.209Z,112.80
2022-12-11T03:15:25.217Z,97.85
2022-12-11T03:18:02.019Z,98.75
2022-12-11T03:20:52.158Z,104.35
2022-12-11T03:23:32.322Z,90.65
2022-12-11T03:26:04.663Z,105.20
2022-12-11T03:28:38.930Z,100.53
2022-12-11T03:31:12.347Z,98.57
2022-12-11T03:33:42.931Z,75.22
2022-12-11T03:36:16.710Z,81.57
2022-12-11T03:38:52.726Z,101.85
2022-12-11T03:41:26.373Z,92.88
2022-12-11T03:43:58.690Z,82.25
2022-12-11T03:46:41.105Z,77.25
2022-12-11T03:49:16.210Z,85.55
2022-12-11T03:51:45.903Z,93.00
2022-12-11T03:54:15.395Z,77.43
2022-12-11T03:56:46.668Z,84.75
2022-12-11T03:59:16.851Z,95.90
2022-12-11T04:01:48.229Z,87.30
2022-12-11T04:04:17.080Z,98.55
2022-12-11T04:06:45.393Z,88.47
2022-12-11T04:09:13.703Z,102.25
2022-12-11T04:11:47.819Z,91.47
2022-12-11T04:14:40.098Z,95.18
2022-12-11T04:17:09.877Z,91.10
2022-12-11T04:19:59.648Z,96.60
2022-12-11T04:22:56.664Z,81.00
2022-12-11T04:25:24.972Z,98.38
2022-12-11T04:27:53.188Z,92.78
2022-12-11T04:30:23.608Z,77.93
2022-12-11T04:32:54.849Z,85.35
2022-12-11T04:35:23.835Z,80.93
2022-12-11T04:37:53.002Z,100.07
2022-12-11T04:40:23.900Z,88.85
2022-12-11T04:42:52.304Z,98.97
2022-12-11T04:45:20.771Z,101.13
2022-12-11T04:47:49.122Z,89.13
2022-12-11T04:50:19.014Z,78.10
2022-12-11T04:52:47.499Z,72.28
2022-12-11T04:55:15.939Z,88.13
2022-12-11T04:57:44.255Z,85.57
2022-12-11T05:00:14.109Z,76.32
2022-12-11T05:02:43.261Z,81.07
2022-12-11T05:05:19.782Z,71.75
2022-12-11T05:07:49.529Z,79.97
2022-12-11T05:10:18.046Z,67.97
2022-12-11T05:12:46.407Z,82.57
2022-12-11T05:15:14.670Z,82.63
2022-12-11T05:17:45.350Z,70.35
2022-12-11T05:20:13.740Z,78.13
2022-12-11T05:22:42.042Z,80.25
2022-12-11T05:25:12.218Z,82.35
2022-12-11T05:27:40.821Z,82.90
2022-12-11T05:30:10.474Z,73.40
2022-12-11T05:32:38.804Z,76.65
2022-12-11T05:35:07.805Z,88.07
2022-12-11T05:37:36.668Z,73.30
2022-12-11T05:40:31.256Z,72.25
2022-12-11T05:42:59.724Z,80.30
2022-12-11T05:45:28.018Z,63.78
2022-12-11T05:47:56.291Z,97.55
2022-12-11T05:50:24.642Z,85.20
2022-12-11T05:52:52.943Z,85.40
2022-12-11T05:55:21.317Z,91.95
2022-12-11T05:57:50.977Z,84.32
2022-12-11T06:00:34.384Z,69.53
2022-12-11T06:03:07.329Z,76.38
2022-12-11T06:05:39.649Z,69.40
2022-12-11T06:08:08.079Z,72.57
2022-12-11T06:10:36.625Z,69.28
2022-12-11T06:13:06.283Z,71.45
2022-12-11T06:15:34.786Z,75.45
2022-12-11T06:18:03.048Z,71.03
2022-12-11T06:20:33.410Z,51.28
2022-12-11T06:23:02.247Z,65.85
2022-12-11T06:25:33.072Z,59.25
2022-12-11T06:28:01.521Z,55.67
2022-12-11T06:30:38.353Z,54.13
2022-12-11T06:33:08.059Z,62.10
2022-12-11T06:35:41.976Z,56.85
2022-12-11T06:38:11.724Z,60.78
2022-12-11T06:40:40.825Z,55.55
2022-12-11T06:43:09.046Z,56.05
2022-12-11T06:45:40.252Z,62.03
2022-12-11T06:48:08.651Z,56.08
2022-12-11T06:50:38.965Z,48.70
2022-12-11T06:53:07.477Z,52.05
2022-12-11T06:55:37.016Z,46.95
2022-12-11T06:58:05.811Z,49.92
2022-12-11T07:00:35.915Z,43.00
2022-12-11T07:03:06.959Z,46.60
2022-12-11T07:05:37.704Z,47.50
2022-12-11T07:08:07.488Z,47.08
2022-12-11T07:10:35.883Z,45.08
2022-12-11T07:13:04.239Z,49.15
2022-12-11T07:15:34.403Z,45.28
2022-12-11T07:18:06.304Z,39.83
2022-12-11T07:20:36.156Z,42.80
2022-12-11T07:23:04.801Z,40.28
2022-12-11T07:25:33.183Z,39.63
2022-12-11T07:28:01.567Z,36.75
2022-12-11T07:30:29.936Z,41.50
2022-12-11T07:32:58.306Z,40.00
2022-12-11T07:35:32.263Z,39.10
2022-12-11T07:38:00.590Z,42.67
2022-12-11T07:40:29.037Z,36.45
2022-12-11T07:42:57.544Z,37.83
2022-12-11T07:45:26.648Z,31.55
2022-12-11T07:47:55.093Z,33.63
2022-12-11T07:50:24.041Z,30.50
2022-12-11T07:52:53.826Z,39.67
2022-12-11T07:55:22.245Z,36.55
2022-12-11T07:57:50.772Z,30.58
2022-12-11T08:00:22.943Z,34.42
2022-12-11T08:02:53.236Z,26.67
2022-12-11T08:05:22.697Z,25.55
2022-12-11T08:07:51.245Z,32.83
2022-12-11T08:10:30.723Z,38.45
2022-12-11T08:13:06.503Z,33.50
2022-12-11T08:15:41.519Z,28.83
2022-12-11T08:18:16.789Z,28.08
2022-12-11T08:20:48.418Z,37.53
2022-12-11T08:27:05.456Z,27.77
2022-12-11T08:29:37.268Z,29.52
2022-12-11T08:35:44.191Z,29.17
2022-12-11T08:42:55.047Z,33.97
2022-12-11T10:25:28.771Z,29.52
2022-12-11T10:37:08.908Z,15.88
2022-12-11T10:55:35.092Z,17.27
2022-12-11T10:58:49.335Z,18.92
2022-12-11T11:01:43.498Z,11.88
2022-12-11T11:04:53.033Z,20.77
2022-12-11T11:07:45.603Z,16.85
2022-12-11T11:10:25.363Z,18.63
2022-12-11T11:13:03.277Z,17.30
2022-12-11T11:15:53.531Z,17.38
2022-12-11T11:18:27.288Z,27.58
2022-12-11T11:20:56.497Z,21.48
2022-12-11T11:23:27.330Z,27.25
2022-12-11T11:26:09.384Z,16.95
2022-12-11T11:28:41.767Z,18.42
2022-12-11T11:31:13.867Z,20.33
2022-12-11T11:33:54.069Z,14.48
2022-12-11T11:36:25.340Z,18.95
2022-12-11T11:39:11.792Z,18.58
2022-12-11T11:41:53.662Z,20.10
2022-12-11T11:44:39.842Z,25.70
2022-12-11T11:47:23.805Z,15.70
2022-12-11T11:50:03.507Z,20.58
2022-12-11T11:52:37.594Z,16.13
2022-12-11T11:55:38.608Z,16.90
2022-12-11T11:58:20.847Z,18.85
2022-12-11T12:00:49.552Z,12.15
2022-12-11T12:03:20.327Z,11.98
2022-12-11T12:05:58.348Z,11.85
2022-12-11T12:08:42.945Z,15.95
2022-12-11T12:11:27.871Z,22.90
2022-12-11T12:14:22.713Z,18.48
2022-12-11T12:17:07.839Z,18.45
2022-12-11T12:19:53.894Z,20.42
2022-12-11T12:22:41.197Z,17.02
2022-12-11T12:25:21.778Z,20.17
2022-12-11T12:28:27.886Z,25.70
2022-12-11T12:31:14.322Z,18.90
2022-12-11T12:33:55.832Z,11.70
2022-12-11T12:36:32.849Z,20.52
2022-12-11T12:39:06.001Z,14.65
2022-12-11T12:41:47.997Z,17.15
2022-12-11T12:44:23.705Z,15.18
2022-12-11T12:47:24.008Z,16.58
2022-12-11T12:49:59.270Z,23.75
2022-12-11T12:52:39.732Z,13.30
2022-12-11T12:55:23.072Z,23.77
2022-12-11T12:57:56.031Z,28.40
2022-12-11T13:00:33.923Z,16.77
2022-12-11T13:03:14.897Z,21.90
2022-12-11T13:05:45.883Z,17.85
2022-12-11T13:08:14.567Z,17.40
2022-12-11T13:10:58.363Z,14.38
2022-12-11T13:13:37.945Z,7.95
2022-12-11T13:16:26.963Z,14.90
2022-12-11T13:19:05.611Z,19.10
2022-12-11T13:21:44.314Z,15.40
2022-12-11T13:24:25.790Z,17.35
2022-12-11T13:26:54.739Z,13.85
2022-12-11T13:29:37.671Z,14.75
2022-12-11T13:32:26.410Z,24.85
2022-12-11T13:34:58.326Z,18.65
2022-12-11T13:37:31.935Z,22.55
2022-12-11T13:40:01.451Z,20.20
2022-12-11T13:42:36.582Z,13.45
2022-12-11T13:45:06.942Z,20.30
2022-12-11T13:48:15.480Z,17.17
2022-12-11T13:51:01.852Z,16.75
2022-12-11T13:53:30.589Z,17.88
2022-12-11T13:56:00.963Z,16.80
2022-12-11T13:58:31.141Z,25.05
2022-12-11T14:01:08.873Z,18.50
2022-12-11T14:03:37.599Z,18.52
2022-12-11T14:06:22.767Z,18.55
2022-12-11T14:08:57.424Z,16.05
2022-12-11T14:11:29.473Z,15.30
2022-12-11T14:14:00.907Z,19.15
2022-12-11T14:17:02.675Z,20.85
2022-12-11T14:19:31.318Z,17.52
2022-12-11T14:22:05.318Z,22.77
2022-12-11T14:24:35.063Z,14.35
2022-12-11T14:27:04.898Z,16.75
2022-12-11T14:29:34.898Z,13.68
2022-12-11T14:32:05.201Z,20.55
2022-12-11T14:34:38.306Z,16.35
2022-12-11T14:37:08.874Z,16.02
2022-12-11T14:39:44.405Z,22.67
2022-12-11T14:42:16.907Z,25.65
2022-12-11T14:44:51.092Z,15.23
2022-12-11T14:47:22.931Z,20.20
2022-12-11T14:49:58.878Z,13.30
2022-12-11T14:52:34.029Z,20.08
2022-12-11T14:55:07.336Z,14.55
2022-12-11T14:57:36.634Z,18.13
2022-12-11T15:00:06.449Z,17.67
2022-12-11T15:02:36.772Z,18.48
2022-12-11T15:05:18.673Z,21.88
2022-12-11T15:08:24.722Z,13.25
2022-12-11T15:11:05.698Z,15.73
2022-12-11T15:13:36.429Z,16.90
2022-12-11T15:16:07.659Z,16.60
2022-12-11T15:18:39.845Z,20.75
2022-12-11T15:21:10.083Z,14.45
2022-12-11T15:23:51.943Z,14.55
2022-12-11T15:26:38.047Z,21.25
2022-12-11T15:29:24.421Z,14.45
2022-12-11T15:32:01.803Z,19.13
2022-12-11T15:34:34.828Z,12.90
2022-12-11T15:37:03.344Z,18.15
2022-12-11T15:39:34.816Z,17.70
2022-12-11T15:42:08.288Z,20.52
2022-12-11T15:44:36.834Z,15.23
2022-12-11T15:47:13.733Z,13.02
2022-12-11T15:49:42.191Z,15.70
2022-12-11T15:52:10.683Z,21.55
2022-12-11T15:54:40.835Z,18.25
2022-12-11T15:57:18.080Z,17.67
2022-12-11T15:59:48.832Z,13.85
2022-12-11T16:02:17.703Z,14.85
2022-12-11T16:04:51.921Z,18.08
2022-12-11T16:07:23.049Z,13.85
2022-12-11T16:10:00.037Z,12.95
2022-12-11T16:12:28.510Z,17.65
2022-12-11T16:14:59.828Z,11.38
2022-12-11T16:17:28.621Z,19.70
2022-12-11T16:20:36.658Z,12.13
2022-12-11T16:23:07.429Z,22.13
2022-12-11T16:25:39.179Z,15.48
2022-12-11T16:28:08.559Z,16.20
2022-12-11T16:31:08.221Z,10.80
2022-12-11T16:33:48.370Z,14.77
2022-12-11T16:36:19.396Z,15.68
2022-12-11T16:38:55.830Z,9.90
2022-12-11T16:41:28.410Z,10.65
2022-12-11T16:44:01.152Z,12.13
2022-12-11T16:46:29.729Z,17.02
2022-12-11T16:49:00.614Z,12.75
2022-12-11T16:51:29.299Z,14.13
2022-12-11T16:53:57.681Z,14.50
2022-12-11T16:56:30.799Z,15.20
2022-12-11T16:59:02.835Z,19.48
2022-12-11T17:01:35.857Z,22.60
2022-12-11T17:04:16.247Z,16.75
2022-12-11T17:06:51.723Z,13.63
2022-12-11T17:09:20.415Z,17.05
2022-12-11T17:11:50.364Z,11.02
2022-12-11T17:14:18.925Z,11.80
2022-12-11T17:16:50.267Z,12.48
2022-12-11T17:19:18.935Z,14.25
2022-12-11T17:21:51.560Z,12.30
2022-12-11T17:24:20.345Z,16.52
2022-12-11T17:26:50.323Z,13.25
2022-12-11T17:29:20.093Z,16.05
2022-12-11T17:31:48.920Z,10.25
2022-12-11T17:34:17.403Z,13.18
2022-12-11T17:36:46.707Z,11.68
2022-12-11T17:39:15.178Z,17.83
2022-12-11T17:41:43.850Z,12.75
2022-12-11T17:44:21.659Z,12.32
2022-12-11T17:46:51.078Z,17.35
2022-12-11T17:49:19.915Z,20.38
2022-12-11T17:51:49.166Z,18.58
2022-12-11T17:54:17.678Z,17.00
2022-12-11T17:56:46.346Z,15.20
2022-12-11T17:59:16.236Z,14.73
2022-12-11T18:02:14.218Z,11.70
2022-12-11T18:04:42.786Z,15.18
2022-12-11T18:07:11.189Z,12.75
2022-12-11T18:09:41.274Z,16.85
2022-12-11T18:12:10.596Z,17.55
2022-12-11T18:14:41.843Z,14.20
2022-12-11T18:17:10.427Z,10.45
2022-12-11T18:19:46.636Z,8.98
2022-12-11T18:22:22.069Z,16.05
2022-12-11T18:24:54.925Z,24.38
2022-12-11T18:27:23.485Z,22.70
2022-12-11T18:30:02.974Z,15.20
2022-12-11T18:32:33.264Z,14.85
2022-12-11T18:35:02.626Z,14.70
2022-12-11T18:37:33.140Z,17.70
2022-12-11T18:40:04.416Z,12.05
2022-12-11T18:42:33.848Z,16.73
2022-12-11T18:45:26.729Z,15.07
2022-12-11T18:47:56.625Z,25.20
2022-12-11T18:50:27.141Z,19.27
2022-12-11T18:52:57.112Z,15.40
2022-12-11T18:55:26.006Z,12.00
2022-12-11T18:57:54.631Z,16.00
2022-12-11T19:00:25.046Z,13.52
2022-12-11T19:02:53.543Z,16.73
2022-12-11T19:05:22.158Z,11.60
2022-12-11T19:07:50.675Z,15.55
2022-12-11T19:10:19.381Z,19.63
2022-12-11T19:12:47.977Z,17.48
2022-12-11T19:15:20.865Z,13.88
2022-12-11T19:17:53.831Z,11.77
2022-12-11T19:20:47.992Z,17.67
2022-12-11T19:23:11.830Z,13.80
2022-12-11T19:25:44.274Z,16.75
2022-12-11T19:28:14.747Z,17.58
2022-12-11T19:30:45.440Z,13.60
2022-12-11T19:33:30.158Z,17.98
2022-12-11T19:36:04.197Z,16.95
2022-12-11T19:38:32.691Z,14.65
2022-12-11T19:41:09.148Z,21.60
2022-12-11T19:43:38.073Z,16.55
2022-12-11T19:46:12.692Z,13.18
2022-12-11T19:48:42.911Z,12.70
2022-12-11T19:51:14.303Z,20.80
2022-12-11T19:53:46.169Z,13.57
2022-12-11T19:56:15.010Z,16.17
2022-12-11T19:58:43.823Z,15.45
2022-12-11T20:01:21.356Z,15.18
2022-12-11T20:04:01.552Z,14.32
2022-12-11T20:06:30.856Z,11.18
2022-12-11T20:09:00.379Z,8.20
2022-12-11T20:11:40.687Z,12.30
2022-12-11T20:14:20.120Z,16.73
2022-12-11T20:19:39.128Z,12.73
2022-12-11T20:22:12.008Z,14.82
2022-12-11T20:24:40.724Z,14.02
2022-12-11T20:27:13.692Z,11.30
2022-12-11T20:29:45.458Z,10.38
2022-12-11T20:32:16.258Z,10.55
2022-12-11T20:34:46.998Z,16.98
2022-12-11T20:38:02.364Z,11.88
2022-12-11T20:40:31.059Z,11.07
2022-12-11T20:43:21.997Z,7.38
2022-12-11T20:45:52.105Z,8.40
2022-12-11T20:48:25.068Z,11.60
2022-12-11T20:51:14.068Z,14.63
2022-12-11T20:54:00.073Z,21.98
2022-12-11T20:56:30.853Z,18.45
2022-12-11T20:59:03.157Z,20.77
2022-12-11T21:01:34.899Z,10.57
2022-12-11T21:04:03.705Z,16.13
2022-12-11T21:06:36.575Z,18.27
2022-12-11T21:09:08.550Z,15.02
2022-12-11T21:12:11.705Z,14.88
2022-12-11T21:14:40.995Z,14.80
2022-12-11T21:17:11.929Z,11.63
2022-12-11T21:20:16.049Z,19.35
2022-12-11T21:22:47.650Z,16.13
2022-12-11T21:25:16.336Z,9.55
2022-12-11T21:27:48.574Z,12.25
2022-12-11T21:30:22.586Z,13.77
2022-12-11T21:32:51.151Z,10.70
2022-12-11T21:35:21.985Z,13.05
2022-12-11T21:37:59.974Z,15.80
2022-12-11T21:40:28.783Z,13.30
2022-12-11T21:42:58.708Z,12.90
2022-12-11T21:45:59.699Z,7.50
2022-12-11T21:48:17.934Z,21.83
2022-12-11T21:50:46.459Z,20.45
2022-12-11T21:53:34.215Z,16.23
2022-12-11T21:56:07.047Z,9.85
2022-12-11T21:58:36.121Z,9.05
2022-12-11T22:01:04.907Z,19.08
2022-12-11T22:03:33.849Z,10.65
2022-12-11T22:06:02.278Z,11.90
2022-12-11T22:08:33.462Z,15.02
2022-12-11T22:11:02.481Z,13.90
2022-12-11T22:13:31.033Z,9.73
2022-12-11T22:16:02.752Z,20.45
2022-12-11T22:18:31.450Z,14.57
2022-12-11T22:21:00.335Z,12.70
2022-12-11T22:23:28.837Z,11.02
2022-12-11T22:25:58.625Z,7.85
2022-12-11T22:28:27.014Z,5.10
2022-12-11T22:30:55.911Z,15.07
2022-12-11T22:33:24.616Z,11.60
2022-12-11T22:35:57.183Z,15.93
2022-12-11T22:38:25.828Z,10.35
2022-12-11T22:40:59.903Z,8.70
2022-12-11T22:43:30.361Z,10.43
2022-12-11T22:45:58.703Z,16.27
2022-12-11T22:48:27.609Z,11.15
2022-12-11T22:50:56.088Z,7.30
2022-12-11T22:53:24.457Z,17.77
2022-12-11T22:55:53.509Z,9.68
2022-12-11T22:58:22.188Z,16.02
2022-12-11T23:00:52.556Z,10.00
2022-12-11T23:03:21.063Z,11.80
2022-12-11T23:05:49.445Z,15.32
2022-12-11T23:08:17.837Z,7.97
2022-12-11T23:10:46.716Z,15.23
2022-12-11T23:13:17.793Z,10.93
2022-12-11T23:15:46.146Z,11.77
2022-12-11T23:18:17.803Z,12.63
2022-12-11T23:20:46.983Z,11.13
2022-12-11T23:23:15.422Z,12.73
2022-12-11T23:25:43.817Z,13.80
2022-12-11T23:28:12.327Z,14.65
2022-12-11T23:30:40.757Z,11.25
2022-12-11T23:33:09.395Z,13.55
2022-12-11T23:35:39.112Z,8.70
2022-12-11T23:38:08.330Z,11.00
2022-12-11T23:40:37.003Z,8.13
2022-12-11T23:43:05.458Z,7.43
2022-12-11T23:45:34.102Z,10.25
2022-12-11T23:48:02.459Z,7.85
2022-12-11T23:50:33.028Z,15.07
2022-12-11T23:53:02.811Z,7.53
2022-12-11T23:55:31.198Z,5.93
2022-12-11T23:58:01.055Z,16.30
